Time;durP1;ratioP1;P1;durP2;ratioP2;P2;SDS_P1;SDS_P2;PMS_P1;PMS_P2;Temp;Humidity;BMP_temperature;BMP_pressure;BME280_temperature;BME280_humidity;BME280_pressure;Samples;Min_cycle;Max_cycle;Signal;HPM_P1;HPM_P2
2023/05/29 00:00:17;;;;;;;11.85;2.80;;;9.80;99.90;;;;;;6283949;22;20012;-92
2023/05/29 00:02:44;;;;;;;16.90;3.33;;;9.80;99.90;;;;;;6284551;22;20015;-92
2023/05/29 00:05:13;;;;;;;15.57;3.33;;;9.80;99.90;;;;;;6284098;22;20011;-92
2023/05/29 00:07:39;;;;;;;22.38;4.00;;;9.80;99.90;;;;;;6283236;22;20015;-92
2023/05/29 00:10:06;;;;;;;20.73;3.80;;;9.80;99.90;;;;;;6258191;22;20000;-93
2023/05/29 00:12:32;;;;;;;19.50;3.75;;;9.80;99.90;;;;;;6257965;22;20066;-92
2023/05/29 00:14:58;;;;;;;21.33;3.47;;;9.80;99.90;;;;;;6258265;22;20023;-93
2023/05/29 00:17:24;;;;;;;19.08;4.78;;;9.80;99.90;;;;;;6257506;22;20403;-94
2023/05/29 00:19:50;;;;;;;21.58;4.00;;;9.80;99.90;;;;;;6257842;22;20051;-93
2023/05/29 00:22:17;;;;;;;22.67;4.47;;;9.80;99.90;;;;;;6257256;22;20003;-92
2023/05/29 00:24:43;;;;;;;34.97;4.43;;;9.70;99.90;;;;;;6257147;22;20442;-93
2023/05/29 00:27:09;;;;;;;19.70;4.25;;;9.70;99.90;;;;;;6257866;22;20007;-92
2023/05/29 00:29:37;;;;;;;17.67;4.05;;;9.70;99.90;;;;;;6284615;22;20003;-93
2023/05/29 00:32:04;;;;;;;18.70;4.10;;;9.70;99.90;;;;;;6257643;22;20008;-92
2023/05/29 00:34:30;;;;;;;24.88;5.00;;;9.60;99.90;;;;;;6260001;22;20006;-92
2023/05/29 00:36:57;;;;;;;19.98;4.60;;;9.60;99.90;;;;;;6269340;22;20431;-92
2023/05/29 00:39:23;;;;;;;20.08;4.43;;;9.60;99.90;;;;;;6234215;22;20030;-92
2023/05/29 00:41:50;;;;;;;23.40;5.20;;;9.50;99.90;;;;;;6257918;22;19999;-92
2023/05/29 00:44:17;;;;;;;22.55;5.20;;;9.50;99.90;;;;;;6258344;22;20014;-90
2023/05/29 00:46:43;;;;;;;26.02;5.25;;;9.40;99.90;;;;;;6257599;22;20004;-91
2023/05/29 00:49:11;;;;;;;21.38;4.97;;;9.40;99.90;;;;;;6232438;22;20000;-91
2023/05/29 00:51:38;;;;;;;21.38;4.78;;;9.40;99.90;;;;;;6257965;22;20076;-91
2023/05/29 00:54:09;;;;;;;20.05;4.80;;;9.40;99.90;;;;;;6257247;22;20000;-92
2023/05/29 00:56:35;;;;;;;20.98;4.68;;;9.30;99.90;;;;;;6256767;22;20565;-92
2023/05/29 00:59:01;;;;;;;21.88;4.90;;;9.30;99.90;;;;;;6258057;22;20025;-93
2023/05/29 01:01:27;;;;;;;17.75;4.82;;;9.30;99.90;;;;;;6257417;22;20031;-93
2023/05/29 01:03:57;;;;;;;19.08;4.47;;;9.20;99.90;;;;;;6257278;22;20007;-93
2023/05/29 01:06:23;;;;;;;18.20;4.25;;;9.10;99.90;;;;;;6257191;22;20087;-92
2023/05/29 01:08:51;;;;;;;25.20;4.82;;;9.00;99.90;;;;;;6257561;22;20003;-93
2023/05/29 01:11:43;;;;;;;23.15;4.50;;;8.90;99.90;;;;;;6258062;22;20027;-92
2023/05/29 01:14:19;;;;;;;24.63;4.75;;;8.80;99.90;;;;;;6250948;22;20058;-91
2023/05/29 01:16:57;;;;;;;16.35;4.00;;;8.80;99.90;;;;;;6258678;22;20000;-93
2023/05/29 01:19:47;;;;;;;20.60;4.18;;;8.70;99.90;;;;;;6259910;22;20010;-93
2023/05/29 01:22:20;;;;;;;24.30;4.68;;;8.60;99.90;;;;;;6263725;22;20011;-92
2023/05/29 01:24:57;;;;;;;24.30;4.28;;;8.60;99.90;;;;;;6277596;22;20046;-92
2023/05/29 01:27:25;;;;;;;16.63;4.03;;;8.50;99.90;;;;;;6275116;22;20015;-92
2023/05/29 01:29:52;;;;;;;16.13;4.55;;;8.50;99.90;;;;;;6278237;22;20022;-92
2023/05/29 01:32:20;;;;;;;15.25;3.53;;;8.40;99.90;;;;;;6274163;22;20102;-94
2023/05/29 01:34:47;;;;;;;14.93;3.40;;;8.40;99.90;;;;;;6270619;22;20035;-92
2023/05/29 01:37:13;;;;;;;13.35;4.43;;;8.30;99.90;;;;;;6264286;22;20008;-94
2023/05/29 01:39:40;;;;;;;17.38;4.47;;;8.20;99.90;;;;;;6262626;22;20014;-93
2023/05/29 01:42:06;;;;;;;18.45;4.65;;;8.20;99.90;;;;;;6262318;22;20423;-91
2023/05/29 01:44:33;;;;;;;19.95;3.97;;;8.20;99.90;;;;;;6235714;22;20027;-94
2023/05/29 01:46:58;;;;;;;12.07;4.07;;;8.10;99.90;;;;;;6261961;22;20004;-92
2023/05/29 01:49:25;;;;;;;13.45;3.80;;;8.10;99.90;;;;;;6261319;22;20010;-91
2023/05/29 01:51:51;;;;;;;20.95;3.75;;;8.10;99.90;;;;;;6270922;22;20038;-92
2023/05/29 01:54:17;;;;;;;13.07;3.58;;;8.10;99.90;;;;;;6272077;22;20339;-91
2023/05/29 01:56:44;;;;;;;12.18;3.40;;;8.00;99.90;;;;;;6273481;22;20079;-91
2023/05/29 01:59:12;;;;;;;14.85;3.72;;;8.00;99.90;;;;;;6269604;22;19999;-91
2023/05/29 02:01:39;;;;;;;21.23;4.18;;;8.00;99.90;;;;;;6269244;22;20014;-92
2023/05/29 02:04:05;;;;;;;18.35;4.60;;;8.00;99.90;;;;;;6275603;22;20007;-90
2023/05/29 02:06:33;;;;;;;12.50;4.03;;;8.00;99.90;;;;;;6278324;22;20003;-91
2023/05/29 02:08:58;;;;;;;15.27;4.40;;;7.90;99.90;;;;;;6275041;22;20000;-92
2023/05/29 02:11:25;;;;;;;17.33;4.07;;;7.90;99.90;;;;;;6268105;22;20019;-91
2023/05/29 02:13:52;;;;;;;14.85;3.45;;;7.80;99.90;;;;;;6275098;22;19987;-91
2023/05/29 02:16:20;;;;;;;14.70;3.60;;;7.80;99.90;;;;;;6277492;22;20027;-91
2023/05/29 02:18:46;;;;;;;13.45;3.45;;;7.80;99.90;;;;;;6276636;22;20008;-93
2023/05/29 02:21:12;;;;;;;15.95;4.05;;;7.70;99.90;;;;;;6276211;22;20008;-91
2023/05/29 02:23:38;;;;;;;13.43;4.68;;;7.70;99.90;;;;;;6302694;22;20011;-92
2023/05/29 02:26:04;;;;;;;14.32;5.68;;;7.60;99.90;;;;;;6275423;22;20576;-91
2023/05/29 02:28:30;;;;;;;19.48;3.80;;;7.60;99.90;;;;;;6275233;22;20076;-91
2023/05/29 02:30:56;;;;;;;16.10;3.85;;;7.50;99.90;;;;;;6263357;22;20431;-92
2023/05/29 02:33:22;;;;;;;10.82;3.10;;;7.50;99.90;;;;;;6295730;22;20018;-91
2023/05/29 02:35:48;;;;;;;16.88;3.67;;;7.40;99.90;;;;;;6263153;22;20067;-91
2023/05/29 02:38:14;;;;;;;23.65;3.90;;;7.40;99.90;;;;;;6260216;22;20016;-91
2023/05/29 02:40:39;;;;;;;19.02;4.00;;;7.30;99.90;;;;;;6259694;22;19999;-92
2023/05/29 02:43:08;;;;;;;24.75;3.88;;;7.20;99.90;;;;;;6259534;22;20309;-92
2023/05/29 02:45:33;;;;;;;15.93;3.95;;;7.20;99.90;;;;;;6286317;22;20427;-93
2023/05/29 02:47:59;;;;;;;19.08;3.55;;;7.20;99.90;;;;;;6259681;22;20004;-91
2023/05/29 02:50:25;;;;;;;23.77;3.75;;;7.20;99.90;;;;;;6258766;22;20296;-91
2023/05/29 02:52:52;;;;;;;11.13;2.85;;;7.20;99.90;;;;;;6258831;22;20003;-91
2023/05/29 02:55:18;;;;;;;12.20;3.35;;;7.20;99.90;;;;;;6259377;22;19999;-91
2023/05/29 02:57:49;;;;;;;20.40;3.88;;;7.10;99.90;;;;;;6259237;22;20023;-93
2023/05/29 03:00:15;;;;;;;;;;;7.10;99.90;;;;;;6259661;22;20035;-91
2023/05/29 03:02:41;;;;;;;17.02;3.70;;;7.10;99.90;;;;;;6258887;22;20279;-91
2023/05/29 03:05:07;;;;;;;20.08;4.10;;;7.00;99.90;;;;;;6258645;22;20062;-92
2023/05/29 03:07:33;;;;;;;17.73;4.82;;;6.90;99.90;;;;;;6258852;22;20067;-92
2023/05/29 03:09:59;;;;;;;19.70;3.13;;;6.90;99.90;;;;;;6257950;22;19999;-93
2023/05/29 03:12:27;;;;;;;20.02;3.10;;;6.90;99.90;;;;;;6286285;22;20008;-90
2023/05/29 03:14:53;;;;;;;17.27;3.22;;;6.90;99.90;;;;;;6236985;22;20007;-93
2023/05/29 03:17:20;;;;;;;11.38;3.38;;;6.80;99.90;;;;;;6258133;22;20071;-91
2023/05/29 03:19:46;;;;;;;13.73;3.75;;;6.80;99.90;;;;;;6258455;22;20435;-94
2023/05/29 03:22:11;;;;;;;14.70;3.45;;;6.90;99.90;;;;;;6258821;22;20071;-92
2023/05/29 03:24:37;;;;;;;13.63;3.30;;;6.90;99.90;;;;;;6259657;22;20323;-92
2023/05/29 03:27:03;;;;;;;18.35;3.65;;;6.90;99.90;;;;;;6259512;22;20000;-91
2023/05/29 03:29:33;;;;;;;20.75;4.13;;;6.90;99.90;;;;;;6272486;22;20064;-93
2023/05/29 03:32:00;;;;;;;17.42;3.40;;;6.90;99.90;;;;;;6263044;22;20000;-94
2023/05/29 03:34:26;;;;;;;24.85;5.07;;;6.90;99.90;;;;;;6289039;22;20007;-94
2023/05/29 03:36:52;;;;;;;12.13;3.30;;;6.80;99.90;;;;;;6269942;22;20006;-92
2023/05/29 03:39:18;;;;;;;20.40;3.88;;;6.80;99.90;;;;;;6278432;22;20008;-92
2023/05/29 03:41:44;;;;;;;19.83;4.28;;;6.70;99.90;;;;;;6278434;22;20093;-91
2023/05/29 03:44:09;;;;;;;19.10;3.92;;;6.70;99.90;;;;;;6275769;22;20022;-91
2023/05/29 03:46:36;;;;;;;17.58;3.75;;;6.60;99.90;;;;;;6277489;22;20088;-92
2023/05/29 03:49:02;;;;;;;12.60;3.92;;;6.60;99.90;;;;;;6300646;22;20012;-94
2023/05/29 03:51:29;;;;;;;16.50;3.90;;;6.60;99.90;;;;;;6277156;22;19996;-91
2023/05/29 03:53:55;;;;;;;15.90;3.78;;;6.60;99.90;;;;;;6275794;22;20004;-93
2023/05/29 03:56:21;;;;;;;20.02;5.50;;;6.60;99.90;;;;;;6259978;22;20006;-93
2023/05/29 03:58:47;;;;;;;20.85;6.57;;;6.60;99.90;;;;;;6286761;22;20007;-93
2023/05/29 04:01:13;;;;;;;27.48;8.35;;;6.60;99.90;;;;;;6258515;22;20006;-91
2023/05/29 04:03:39;;;;;;;23.77;7.85;;;6.70;99.90;;;;;;6254043;22;20054;-94
2023/05/29 04:06:05;;;;;;;29.40;9.60;;;6.70;99.90;;;;;;6258490;22;20391;-93
2023/05/29 04:08:31;;;;;;;32.75;10.82;;;6.70;99.90;;;;;;6255730;22;20004;-94
2023/05/29 04:10:56;;;;;;;30.95;11.13;;;6.70;99.90;;;;;;6254754;22;20015;-92
2023/05/29 04:13:22;;;;;;;24.17;11.20;;;6.80;99.90;;;;;;6254667;22;20404;-93
2023/05/29 04:15:48;;;;;;;30.50;13.23;;;6.90;99.90;;;;;;6252746;22;20008;-94
2023/05/29 04:18:13;;;;;;;32.05;11.13;;;6.90;99.90;;;;;;6252001;22;20019;-93
2023/05/29 04:20:39;;;;;;;35.28;11.75;;;6.90;99.90;;;;;;6252686;22;20004;-93
2023/05/29 04:23:05;;;;;;;30.02;13.10;;;7.00;99.90;;;;;;6252512;22;20003;-92
2023/05/29 04:25:32;;;;;;;32.30;12.38;;;7.10;99.90;;;;;;6252842;22;20488;-93
2023/05/29 04:27:57;;;;;;;36.17;12.95;;;7.10;99.90;;;;;;6252098;22;20309;-93
2023/05/29 04:30:23;;;;;;;33.28;12.60;;;7.20;99.90;;;;;;6252127;22;20011;-91
2023/05/29 04:32:49;;;;;;;28.20;10.02;;;7.20;99.90;;;;;;6278614;22;20004;-92
2023/05/29 04:35:15;;;;;;;36.08;12.98;;;7.20;99.90;;;;;;6250978;22;20090;-92
2023/05/29 04:37:41;;;;;;;35.80;10.55;;;7.30;99.90;;;;;;6251222;22;20016;-93
2023/05/29 04:40:09;;;;;;;32.38;11.48;;;7.30;99.90;;;;;;6251194;22;20011;-91
2023/05/29 04:42:35;;;;;;;23.77;11.13;;;7.40;99.90;;;;;;6251515;22;20038;-93
2023/05/29 04:45:01;;;;;;;33.47;10.02;;;7.40;99.90;;;;;;6251163;22;20424;-91
2023/05/29 04:47:27;;;;;;;32.78;10.15;;;7.40;99.90;;;;;;6251463;22;20004;-93
2023/05/29 04:49:54;;;;;;;27.58;9.98;;;7.40;99.90;;;;;;6251598;22;20304;-94
2023/05/29 04:52:21;;;;;;;24.48;9.07;;;7.50;99.90;;;;;;6251576;22;20004;-93
2023/05/29 04:54:46;;;;;;;22.95;9.38;;;7.50;99.90;;;;;;6258014;22;20018;-93
2023/05/29 04:57:12;;;;;;;27.58;8.68;;;7.50;99.90;;;;;;6290980;22;20011;-95
2023/05/29 04:59:38;;;;;;;22.90;8.52;;;7.60;99.90;;;;;;6254022;22;20004;-93
2023/05/29 05:02:04;;;;;;;20.60;8.07;;;7.60;99.90;;;;;;6251453;22;20212;-93
2023/05/29 05:04:30;;;;;;;21.73;8.07;;;7.60;99.90;;;;;;6253254;22;20023;-94
2023/05/29 05:06:55;;;;;;;20.08;7.85;;;7.60;99.90;;;;;;6227689;22;20000;-93
2023/05/29 05:09:21;;;;;;;18.17;6.85;;;7.60;99.90;;;;;;6253246;22;20018;-93
2023/05/29 05:11:47;;;;;;;22.80;7.35;;;7.60;99.90;;;;;;6252976;22;20004;-92
2023/05/29 05:14:12;;;;;;;22.50;6.53;;;7.60;99.90;;;;;;6254505;22;20008;-94
2023/05/29 05:16:38;;;;;;;20.73;6.72;;;7.60;99.90;;;;;;6281738;22;20088;-93
2023/05/29 05:19:05;;;;;;;21.38;7.30;;;7.70;99.90;;;;;;6229528;22;20273;-94
2023/05/29 05:21:31;;;;;;;26.45;7.32;;;7.60;99.90;;;;;;6267278;22;20018;-92
2023/05/29 05:23:57;;;;;;;18.85;6.68;;;7.70;99.90;;;;;;6275752;22;20075;-93
2023/05/29 05:26:22;;;;;;;19.27;6.78;;;7.80;99.90;;;;;;6275661;22;20000;-93
2023/05/29 05:28:48;;;;;;;17.98;6.47;;;7.80;99.90;;;;;;6275042;22;20004;-92
2023/05/29 05:31:14;;;;;;;27.50;7.22;;;7.80;99.90;;;;;;6270230;22;20000;-94
2023/05/29 05:33:40;;;;;;;24.00;6.30;;;7.90;99.90;;;;;;6275030;22;20007;-93
2023/05/29 05:36:06;;;;;;;19.17;6.53;;;7.90;99.90;;;;;;6275311;22;19995;-94
2023/05/29 05:38:32;;;;;;;22.30;6.93;;;8.00;99.90;;;;;;6269969;22;20015;-93
2023/05/29 05:40:58;;;;;;;24.45;8.25;;;8.10;99.90;;;;;;6275856;22;20011;-92
2023/05/29 05:43:26;;;;;;;21.80;6.90;;;8.10;99.90;;;;;;6250123;22;20067;-93
2023/05/29 05:45:52;;;;;;;26.15;6.82;;;8.20;99.90;;;;;;6301613;22;20014;-91
2023/05/29 05:48:18;;;;;;;18.98;6.60;;;8.20;99.90;;;;;;6260112;22;20012;-94
2023/05/29 05:50:44;;;;;;;17.83;5.68;;;8.40;99.90;;;;;;6253472;22;20003;-92
2023/05/29 05:53:09;;;;;;;23.75;6.72;;;8.50;99.90;;;;;;6252837;22;20035;-92
2023/05/29 05:55:35;;;;;;;18.33;5.75;;;8.50;99.90;;;;;;6254421;22;20000;-93
2023/05/29 05:58:00;;;;;;;16.60;5.75;;;8.50;99.90;;;;;;6255612;22;20017;-93
2023/05/29 06:00:26;;;;;;;15.93;6.10;;;8.60;99.90;;;;;;6260876;22;20078;-93
2023/05/29 06:02:52;;;;;;;18.50;5.75;;;8.70;99.90;;;;;;6253632;22;20016;-90
2023/05/29 06:05:19;;;;;;;12.32;4.97;;;8.70;99.90;;;;;;6254109;22;20018;-92
2023/05/29 06:07:45;;;;;;;23.23;6.40;;;8.80;99.90;;;;;;6256402;22;20035;-94
2023/05/29 06:10:11;;;;;;;12.98;4.43;;;8.90;99.90;;;;;;6255198;22;20501;-95
2023/05/29 06:12:36;;;;;;;13.57;4.28;;;9.00;99.90;;;;;;6255150;22;20036;-93
2023/05/29 06:15:04;;;;;;;18.02;4.60;;;9.10;99.90;;;;;;6255623;22;20011;-92
2023/05/29 06:17:29;;;;;;;12.70;3.58;;;9.20;99.90;;;;;;6258194;22;20099;-93
2023/05/29 06:19:55;;;;;;;12.65;3.60;;;9.30;99.90;;;;;;6257160;22;20435;-93
2023/05/29 06:22:21;;;;;;;16.33;4.75;;;9.40;99.90;;;;;;6264759;22;20238;-92
2023/05/29 06:24:47;;;;;;;12.10;2.90;;;9.50;99.90;;;;;;6264245;22;20070;-93
2023/05/29 06:27:12;;;;;;;7.35;2.97;;;9.60;99.90;;;;;;6258042;22;20011;-93
2023/05/29 06:29:38;;;;;;;9.45;2.15;;;9.70;99.90;;;;;;6255768;22;20003;-91
2023/05/29 06:32:04;;;;;;;14.88;3.05;;;9.80;99.90;;;;;;6258365;22;20004;-92
2023/05/29 06:34:30;;;;;;;11.00;2.72;;;10.00;99.90;;;;;;6260153;22;20003;-94
2023/05/29 06:36:55;;;;;;;10.25;2.53;;;10.10;99.90;;;;;;6259847;22;20008;-93
2023/05/29 06:39:24;;;;;;;13.40;3.85;;;10.20;99.90;;;;;;6259515;22;20012;-93
2023/05/29 06:41:49;;;;;;;13.27;2.92;;;10.30;99.90;;;;;;6259930;22;20067;-93
2023/05/29 06:44:15;;;;;;;12.00;2.42;;;10.40;99.90;;;;;;6259953;22;20442;-94
2023/05/29 06:46:41;;;;;;;15.23;2.85;;;10.50;99.90;;;;;;6260789;22;20007;-95
2023/05/29 06:49:06;;;;;;;8.13;2.17;;;10.50;99.90;;;;;;6265373;22;20024;-92
2023/05/29 06:51:33;;;;;;;11.77;2.35;;;10.60;99.90;;;;;;6264432;22;20011;-95
2023/05/29 06:53:59;;;;;;;11.73;2.42;;;10.70;99.90;;;;;;6269529;22;20051;-93
2023/05/29 06:56:27;;;;;;;16.77;2.65;;;10.80;99.90;;;;;;6269018;22;20055;-94
2023/05/29 06:58:53;;;;;;;15.07;2.50;;;10.90;99.90;;;;;;6271421;22;20015;-93
2023/05/29 07:01:18;;;;;;;16.50;3.50;;;11.10;99.90;;;;;;6269086;22;20051;-94
2023/05/29 07:03:44;;;;;;;9.23;2.45;;;11.10;99.90;;;;;;6274253;22;19995;-94
2023/05/29 07:06:10;;;;;;;11.23;2.60;;;11.20;99.90;;;;;;6268469;22;20003;-92
2023/05/29 07:08:36;;;;;;;9.73;2.33;;;11.40;99.90;;;;;;6290328;22;19999;-92
2023/05/29 07:11:02;;;;;;;10.40;2.20;;;11.50;99.90;;;;;;6260942;22;20030;-93
2023/05/29 07:13:29;;;;;;;10.93;2.03;;;11.70;99.90;;;;;;6258865;22;20018;-93
2023/05/29 07:15:55;;;;;;;12.23;2.08;;;11.80;99.90;;;;;;6255987;22;20019;-94
2023/05/29 07:18:20;;;;;;;7.82;2.28;;;11.90;99.90;;;;;;6283062;22;20427;-93
2023/05/29 07:20:46;;;;;;;10.40;2.60;;;11.90;99.90;;;;;;6256500;22;20031;-93
2023/05/29 07:23:13;;;;;;;14.43;3.00;;;11.90;99.90;;;;;;6256116;22;20059;-94
2023/05/29 07:25:39;;;;;;;12.75;2.17;;;12.00;99.90;;;;;;6282767;22;20003;-95
2023/05/29 07:28:05;;;;;;;13.38;3.22;;;12.00;99.90;;;;;;6254682;22;20062;-94
2023/05/29 07:30:30;;;;;;;10.80;2.90;;;12.00;99.90;;;;;;6256435;22;20008;-94
2023/05/29 07:32:56;;;;;;;7.45;2.10;;;12.00;99.90;;;;;;6255373;22;20022;-95
2023/05/29 07:35:22;;;;;;;12.15;2.30;;;12.10;99.90;;;;;;6281669;22;20004;-94
2023/05/29 07:37:49;;;;;;;8.00;2.13;;;12.20;99.90;;;;;;6253588;22;20016;-94
2023/05/29 07:40:15;;;;;;;11.75;2.40;;;12.20;99.90;;;;;;6254382;22;20030;-94
2023/05/29 07:42:41;;;;;;;10.15;1.63;;;12.30;99.90;;;;;;6281433;22;20008;-94
2023/05/29 07:45:08;;;;;;;14.73;2.40;;;12.50;99.90;;;;;;6255226;22;20446;-92
2023/05/29 07:47:34;;;;;;;12.20;2.20;;;12.60;99.90;;;;;;6257471;22;20007;-94
2023/05/29 07:49:59;;;;;;;12.45;2.30;;;12.70;99.90;;;;;;6262949;22;20085;-94
2023/05/29 07:52:25;;;;;;;8.95;2.58;;;12.70;99.90;;;;;;6259701;22;20004;-93
2023/05/29 07:54:52;;;;;;;16.77;2.17;;;12.80;99.90;;;;;;6254973;22;20010;-94
2023/05/29 07:57:17;;;;;;;10.73;2.33;;;12.90;99.70;;;;;;6255063;22;20022;-93
2023/05/29 07:59:43;;;;;;;11.30;1.92;;;13.00;99.40;;;;;;6257258;22;19999;-93
2023/05/29 08:02:09;;;;;;;10.85;1.70;;;13.10;98.70;;;;;;6258893;22;20016;-94
2023/05/29 08:04:35;;;;;;;12.77;2.50;;;13.00;97.70;;;;;;6260375;22;20014;-93
2023/05/29 08:07:05;;;;;;;7.70;2.08;;;13.00;97.40;;;;;;6274028;22;19991;-93
2023/05/29 08:09:34;;;;;;;6.57;1.80;;;13.10;97.10;;;;;;6278147;22;19996;-92
2023/05/29 08:12:00;;;;;;;8.40;1.90;;;13.20;96.80;;;;;;6277321;22;19984;-93
2023/05/29 08:14:26;;;;;;;11.95;2.10;;;13.30;96.60;;;;;;6276896;22;19992;-94
2023/05/29 08:16:52;;;;;;;12.98;2.40;;;13.30;96.20;;;;;;6277716;22;20039;-94
2023/05/29 08:19:18;;;;;;;7.80;2.33;;;13.40;96.00;;;;;;6273991;22;20004;-94
2023/05/29 08:21:43;;;;;;;16.92;2.72;;;13.60;95.80;;;;;;6277797;22;20012;-94
2023/05/29 08:24:09;;;;;;;9.00;2.38;;;13.60;95.20;;;;;;6277727;22;20524;-93
2023/05/29 08:26:35;;;;;;;11.15;2.33;;;13.60;94.70;;;;;;6277318;22;20039;-92
2023/05/29 08:29:01;;;;;;;11.00;1.80;;;13.60;94.20;;;;;;6276467;22;20017;-93
2023/05/29 08:31:27;;;;;;;16.13;2.35;;;13.60;93.60;;;;;;6276857;22;20002;-94
2023/05/29 08:33:53;;;;;;;10.13;2.20;;;13.50;93.10;;;;;;6303733;22;20047;-94
2023/05/29 08:36:22;;;;;;;10.35;2.72;;;13.50;93.00;;;;;;6275803;22;19996;-94
2023/05/29 08:38:49;;;;;;;10.90;2.15;;;13.50;92.80;;;;;;6274903;22;19999;-94
2023/05/29 08:41:23;;;;;;;12.57;2.28;;;13.60;92.60;;;;;;6260746;22;20004;-93
2023/05/29 08:43:50;;;;;;;10.20;2.10;;;13.60;92.30;;;;;;6252563;22;20121;-94
2023/05/29 08:46:19;;;;;;;11.07;2.20;;;13.60;92.20;;;;;;6233247;22;20010;-94
2023/05/29 08:48:50;;;;;;;8.95;2.50;;;13.70;92.10;;;;;;6255683;22;20086;-94
2023/05/29 08:51:20;;;;;;;14.88;1.77;;;13.80;92.10;;;;;;6255115;22;20070;-94
2023/05/29 08:53:47;;;;;;;12.05;2.20;;;13.90;91.80;;;;;;6254481;22;19999;-94
2023/05/29 08:56:13;;;;;;;8.90;2.33;;;14.20;91.50;;;;;;6256095;22;20007;-94
2023/05/29 08:58:39;;;;;;;10.15;2.28;;;14.40;91.00;;;;;;6231275;22;20158;-94
2023/05/29 09:01:05;;;;;;;17.73;2.53;;;14.50;90.20;;;;;;6254345;22;20000;-94
2023/05/29 09:03:31;;;;;;;9.13;2.10;;;14.70;89.30;;;;;;6255029;22;20079;-95
2023/05/29 09:06:03;;;;;;;10.23;2.10;;;14.70;88.30;;;;;;6255138;22;19996;-94
2023/05/29 09:08:30;;;;;;;8.02;2.17;;;14.70;87.60;;;;;;6254448;22;20008;-93
2023/05/29 09:10:57;;;;;;;9.82;2.00;;;14.90;87.10;;;;;;6254583;22;20008;-94
2023/05/29 09:13:23;;;;;;;8.68;2.00;;;14.90;86.30;;;;;;6257440;22;20008;-93
2023/05/29 09:15:50;;;;;;;11.95;2.13;;;14.90;85.50;;;;;;6260175;22;20030;-93
2023/05/29 09:18:17;;;;;;;10.75;2.20;;;15.00;85.90;;;;;;6258799;22;20036;-94
2023/05/29 09:20:44;;;;;;;7.07;2.22;;;15.10;85.30;;;;;;6254105;22;20366;-94
2023/05/29 09:23:12;;;;;;;11.02;2.28;;;15.20;84.30;;;;;;6256673;22;20424;-94
2023/05/29 09:25:42;;;;;;;6.05;2.58;;;15.20;83.60;;;;;;6255182;22;20008;-94
2023/05/29 09:28:09;;;;;;;9.43;2.30;;;15.20;83.00;;;;;;6254064;22;20008;-94
2023/05/29 09:30:47;;;;;;;12.63;2.58;;;15.30;82.90;;;;;;6257377;22;20007;-93
2023/05/29 09:33:15;;;;;;;8.15;2.47;;;15.30;82.20;;;;;;6253039;22;20389;-94
2023/05/29 09:35:44;;;;;;;10.65;1.90;;;15.30;82.30;;;;;;6253659;22;19999;-93
2023/05/29 09:38:12;;;;;;;9.07;2.33;;;15.40;82.30;;;;;;6253420;22;20023;-94
2023/05/29 09:40:40;;;;;;;10.93;2.33;;;15.50;81.70;;;;;;6255526;22;20030;-94
2023/05/29 09:43:13;;;;;;;10.38;2.15;;;15.60;81.60;;;;;;6254969;22;20034;-95
2023/05/29 09:45:41;;;;;;;13.85;2.42;;;15.60;81.20;;;;;;6258405;22;20000;-93
2023/05/29 09:48:11;;;;;;;6.85;2.35;;;15.70;81.00;;;;;;6256786;22;20481;-95
2023/05/29 09:50:39;;;;;;;7.55;2.33;;;15.70;80.40;;;;;;6231590;22;20018;-94
2023/05/29 09:53:16;;;;;;;9.93;2.95;;;15.80;80.00;;;;;;6256452;22;20091;-94
2023/05/29 09:55:43;;;;;;;9.80;2.30;;;15.90;79.80;;;;;;6256762;22;20067;-95
2023/05/29 09:58:12;;;;;;;7.65;1.58;;;16.10;79.50;;;;;;6255702;22;20019;-94
2023/05/29 10:00:39;;;;;;;9.90;2.42;;;16.30;78.70;;;;;;6257725;22;20334;-93
2023/05/29 10:03:05;;;;;;;9.40;2.20;;;16.40;78.30;;;;;;6253317;23;20475;-94
2023/05/29 10:05:31;;;;;;;13.68;2.45;;;16.50;78.20;;;;;;6252356;23;20000;-94
2023/05/29 10:07:59;;;;;;;10.15;2.30;;;16.80;77.90;;;;;;6224345;23;20045;-90
2023/05/29 10:10:26;;;;;;;10.93;2.53;;;17.00;77.10;;;;;;6224263;23;20454;-92
2023/05/29 10:12:54;;;;;;;12.75;2.30;;;17.00;76.50;;;;;;6224748;23;20023;-92
2023/05/29 10:15:23;;;;;;;8.20;2.25;;;17.10;76.20;;;;;;6225050;23;20559;-93
2023/05/29 10:17:57;;;;;;;7.32;2.20;;;17.20;75.80;;;;;;6199106;23;20024;-92
2023/05/29 10:20:25;;;;;;;8.82;2.33;;;17.40;75.50;;;;;;6223740;23;20075;-93
2023/05/29 10:22:55;;;;;;;14.25;2.58;;;17.70;74.90;;;;;;6224615;23;20004;-94
2023/05/29 10:25:22;;;;;;;10.18;2.38;;;17.90;74.00;;;;;;6225013;23;20245;-94
2023/05/29 10:27:48;;;;;;;11.50;2.35;;;18.00;73.10;;;;;;6251366;23;20004;-93
2023/05/29 10:30:20;;;;;;;6.95;2.03;;;18.00;72.30;;;;;;6226283;23;20008;-94
2023/05/29 10:33:16;;;;;;;6.35;2.03;;;18.00;72.20;;;;;;6225786;23;20068;-94
2023/05/29 10:35:58;;;;;;;6.30;1.90;;;18.10;71.80;;;;;;6230038;23;20012;-94
2023/05/29 10:38:26;;;;;;;5.57;2.20;;;18.20;71.40;;;;;;6224093;23;20066;-93
2023/05/29 10:40:52;;;;;;;10.18;2.65;;;18.20;71.30;;;;;;6225811;23;20067;-94
2023/05/29 10:43:32;;;;;;;7.93;2.00;;;18.30;71.10;;;;;;6223625;23;20062;-93
2023/05/29 10:45:58;;;;;;;7.47;2.22;;;18.50;70.60;;;;;;6238624;23;20072;-94
2023/05/29 10:48:28;;;;;;;10.90;2.40;;;18.60;70.40;;;;;;6223859;23;20075;-95
2023/05/29 10:50:55;;;;;;;7.05;2.00;;;18.60;69.60;;;;;;6222967;23;20012;-92
2023/05/29 10:53:26;;;;;;;9.73;2.25;;;18.50;68.80;;;;;;6221038;23;20004;-93
2023/05/29 10:55:53;;;;;;;12.80;2.17;;;18.60;68.80;;;;;;6221674;23;20099;-92
2023/05/29 10:58:24;;;;;;;9.32;1.75;;;18.60;68.40;;;;;;6222794;23;20039;-91
2023/05/29 11:00:53;;;;;;;6.38;1.75;;;18.70;68.60;;;;;;6220817;23;20015;-91
2023/05/29 11:03:25;;;;;;;6.32;2.00;;;18.90;67.60;;;;;;6276725;22;20018;-93
2023/05/29 11:06:16;;;;;;;7.82;2.00;;;18.90;67.10;;;;;;6253462;22;20082;-93
2023/05/29 11:08:52;;;;;;;8.43;2.65;;;19.00;66.40;;;;;;6253086;22;20011;-94
2023/05/29 11:11:33;;;;;;;9.48;2.10;;;19.00;66.50;;;;;;6253345;22;20054;-96
2023/05/29 11:14:06;;;;;;;6.05;1.75;;;19.10;66.10;;;;;;6252535;22;20007;-94
2023/05/29 11:16:32;;;;;;;5.05;1.80;;;19.20;65.50;;;;;;6252857;22;20011;-91
2023/05/29 11:19:09;;;;;;;11.65;2.40;;;19.30;65.10;;;;;;6254973;22;20015;-90
2023/05/29 11:22:13;;;;;;;5.75;2.08;;;19.50;65.10;;;;;;6253237;22;20000;-93
2023/05/29 11:24:40;;;;;;;5.72;1.75;;;19.60;64.60;;;;;;6247821;22;20022;-93
2023/05/29 11:27:07;;;;;;;6.65;2.28;;;19.70;64.40;;;;;;6253737;22;20007;-89
2023/05/29 11:29:35;;;;;;;6.95;2.15;;;19.90;64.30;;;;;;6255577;22;20003;-90
2023/05/29 11:32:05;;;;;;;8.85;2.25;;;20.00;64.10;;;;;;6262349;22;20007;-90
2023/05/29 11:34:32;;;;;;;7.03;2.13;;;20.20;63.50;;;;;;6264779;22;20016;-91
2023/05/29 11:37:03;;;;;;;6.35;2.13;;;20.30;63.20;;;;;;6259986;22;20029;-94
2023/05/29 11:39:35;;;;;;;7.22;2.40;;;20.30;62.70;;;;;;6259596;22;20062;-93
2023/05/29 11:42:01;;;;;;;6.78;2.28;;;20.20;63.00;;;;;;6282297;22;20066;-93
2023/05/29 11:44:27;;;;;;;6.72;1.98;;;20.50;62.90;;;;;;6252487;22;20004;-92
2023/05/29 11:47:04;;;;;;;8.13;2.08;;;20.60;63.20;;;;;;6251738;22;20008;-91
2023/05/29 11:49:34;;;;;;;6.18;2.08;;;20.70;61.50;;;;;;6253815;22;20057;-90
2023/05/29 11:52:16;;;;;;;;;;;20.40;61.50;;;;;;6251662;22;20054;-90
2023/05/29 11:54:47;;;;;;;9.30;2.22;;;20.40;61.80;;;;;;6251668;22;19903;-91
2023/05/29 11:57:22;;;;;;;7.03;2.25;;;20.50;62.10;;;;;;6251655;22;20115;-90
2023/05/29 11:59:58;;;;;;;7.40;1.75;;;20.60;62.00;;;;;;6253039;22;20086;-92
2023/05/29 12:02:25;;;;;;;8.55;2.00;;;20.80;61.70;;;;;;6278667;22;20019;-89
2023/05/29 12:05:01;;;;;;;10.98;2.70;;;20.90;61.30;;;;;;6257943;22;20080;-92
2023/05/29 12:07:27;;;;;;;9.07;2.20;;;21.20;61.10;;;;;;6253789;22;20004;-92
2023/05/29 12:09:57;;;;;;;6.93;2.03;;;21.30;60.40;;;;;;6259133;22;20003;-92
2023/05/29 12:12:23;;;;;;;7.85;1.92;;;21.40;60.00;;;;;;6258940;22;20450;-92
2023/05/29 12:14:53;;;;;;;6.93;2.13;;;21.40;59.80;;;;;;6226019;22;20327;-93
2023/05/29 12:17:20;;;;;;;6.45;2.00;;;21.40;59.60;;;;;;6250431;22;20015;-91
2023/05/29 12:19:46;;;;;;;8.93;2.30;;;21.50;59.50;;;;;;6261869;22;20004;-96
2023/05/29 12:22:14;;;;;;;6.97;2.40;;;21.80;59.20;;;;;;6292369;22;20057;-95
2023/05/29 12:24:40;;;;;;;9.48;2.38;;;22.00;58.80;;;;;;6266801;22;20008;-95
2023/05/29 12:30:57;;;;;;;10.50;3.05;;;22.00;58.20;;;;;;6204100;23;20032;-94
2023/05/29 12:33:42;;;;;;;8.43;2.67;;;22.10;58.60;;;;;;6211596;23;20000;-95
2023/05/29 12:36:12;;;;;;;9.95;2.72;;;22.20;58.60;;;;;;6187959;23;20008;-96
2023/05/29 12:38:53;;;;;;;11.88;2.28;;;22.20;58.30;;;;;;6211850;23;20088;-96
2023/05/29 12:41:33;;;;;;;8.60;2.08;;;22.30;57.80;;;;;;6199250;22;20019;-96
2023/05/29 12:44:03;;;;;;;9.18;2.08;;;22.50;57.90;;;;;;6304031;22;20010;-94
2023/05/29 12:46:44;;;;;;;7.50;1.95;;;22.60;57.50;;;;;;6278120;22;20000;-95
2023/05/29 12:49:20;;;;;;;7.65;2.00;;;22.80;57.20;;;;;;6294999;22;20095;-92
2023/05/29 12:51:46;;;;;;;9.15;1.83;;;22.90;56.30;;;;;;6277216;22;20023;-96